Time;durP1;ratioP1;P1;durP2;ratioP2;P2;SDS_P1;SDS_P2;PMS_P1;PMS_P2;Temp;Humidity;BMP_temperature;BMP_pressure;BME280_temperature;BME280_humidity;BME280_pressure;Samples;Min_cycle;Max_cycle;Signal;HPM_P1;HPM_P2
2023/06/04 00:01:46;;;;;;;6.07;4.07;;;9.90;99.90;;;;;;5109705;27;20040;-82
2023/06/04 00:04:11;;;;;;;11.05;4.20;;;9.80;99.90;;;;;;5092555;27;20114;-83
2023/06/04 00:06:37;;;;;;;9.52;4.40;;;9.80;99.90;;;;;;5094391;27;20039;-84
2023/06/04 00:09:10;;;;;;;7.05;4.43;;;9.70;99.90;;;;;;5105586;27;20071;-84
2023/06/04 00:11:36;;;;;;;10.38;4.65;;;9.70;99.90;;;;;;5106565;27;20413;-83
2023/06/04 00:14:02;;;;;;;10.68;5.40;;;9.80;99.90;;;;;;5102142;27;20066;-84
2023/06/04 00:16:30;;;;;;;8.52;4.80;;;9.90;99.90;;;;;;5086849;27;20042;-83
2023/06/04 00:18:56;;;;;;;7.43;4.53;;;9.80;99.90;;;;;;5111737;27;20043;-84
2023/06/04 00:21:21;;;;;;;11.82;4.22;;;9.80;99.90;;;;;;5109515;27;20036;-83
2023/06/04 00:23:47;;;;;;;9.55;4.28;;;9.70;99.90;;;;;;5131480;27;20023;-84
2023/06/04 00:26:13;;;;;;;10.18;4.80;;;9.70;99.90;;;;;;5077159;28;20043;-84
2023/06/04 00:28:38;;;;;;;9.68;5.00;;;9.60;99.90;;;;;;5101326;27;20046;-84
2023/06/04 00:31:05;;;;;;;9.30;4.85;;;9.60;99.90;;;;;;5116660;27;20688;-84
2023/06/04 00:33:31;;;;;;;8.23;4.30;;;9.60;99.90;;;;;;5101211;27;20394;-84
2023/06/04 00:35:57;;;;;;;8.65;4.72;;;9.50;99.90;;;;;;5085801;28;20027;-84
2023/06/04 00:38:23;;;;;;;9.07;4.35;;;9.50;99.90;;;;;;5079665;28;20151;-84
2023/06/04 00:40:49;;;;;;;8.07;4.60;;;9.50;99.90;;;;;;5087698;28;20039;-84
2023/06/04 00:43:15;;;;;;;6.72;3.85;;;9.50;99.90;;;;;;5086342;28;20047;-84
2023/06/04 00:45:41;;;;;;;12.13;5.07;;;9.30;99.90;;;;;;5086213;28;20378;-84
2023/06/04 00:48:07;;;;;;;9.75;5.03;;;9.40;99.90;;;;;;5066153;28;20040;-84
2023/06/04 00:50:35;;;;;;;9.80;5.78;;;9.30;99.90;;;;;;5084667;28;20031;-84
2023/06/04 00:53:01;;;;;;;12.57;5.45;;;9.50;99.90;;;;;;5085009;28;20138;-84
2023/06/04 00:55:28;;;;;;;8.40;5.10;;;9.50;99.90;;;;;;5079228;28;20036;-84
2023/06/04 00:57:56;;;;;;;12.82;5.53;;;9.50;99.90;;;;;;5080629;28;20062;-84
2023/06/04 01:00:22;;;;;;;11.77;5.57;;;9.50;99.90;;;;;;5074525;28;20040;-84
2023/06/04 01:02:53;;;;;;;10.10;6.18;;;9.50;99.90;;;;;;5063531;28;20043;-84
2023/06/04 01:05:48;;;;;;;12.07;5.38;;;9.60;99.90;;;;;;5085588;28;20099;-84
2023/06/04 01:08:15;;;;;;;12.82;5.28;;;9.50;99.90;;;;;;5045145;28;20070;-85
2023/06/04 01:10:55;;;;;;;12.55;5.55;;;9.50;99.90;;;;;;5064892;28;20028;-85
2023/06/04 01:13:23;;;;;;;11.90;5.82;;;9.50;99.90;;;;;;5084866;28;20055;-85
2023/06/04 01:15:51;;;;;;;12.57;5.97;;;9.60;99.90;;;;;;5070724;28;20301;-84
2023/06/04 01:18:30;;;;;;;14.88;5.38;;;9.60;99.90;;;;;;5071408;28;20463;-84
2023/06/04 01:21:12;;;;;;;10.80;5.30;;;9.60;99.90;;;;;;5063920;28;20446;-85
2023/06/04 01:23:49;;;;;;;12.43;5.45;;;9.60;99.90;;;;;;5085345;28;20075;-84
2023/06/04 01:26:15;;;;;;;11.18;5.30;;;9.50;99.90;;;;;;5067775;28;20063;-84
2023/06/04 01:28:43;;;;;;;13.98;6.07;;;9.60;99.90;;;;;;5086620;28;20057;-85
2023/06/04 01:31:09;;;;;;;12.65;6.10;;;9.70;99.90;;;;;;5061534;28;20079;-84
2023/06/04 01:33:35;;;;;;;12.23;6.25;;;9.60;99.90;;;;;;5092179;28;20079;-85
2023/06/04 01:36:02;;;;;;;12.68;6.25;;;9.70;99.90;;;;;;5070366;28;20114;-85
2023/06/04 01:38:27;;;;;;;13.57;6.07;;;9.60;99.90;;;;;;5092101;27;20104;-85
2023/06/04 01:41:00;;;;;;;11.93;5.80;;;9.60;99.90;;;;;;5121127;27;20533;-85
2023/06/04 01:43:27;;;;;;;10.80;5.85;;;9.60;99.90;;;;;;5089288;27;20137;-85
2023/06/04 01:45:54;;;;;;;16.85;6.57;;;9.50;99.90;;;;;;5089208;27;20115;-85
2023/06/04 01:48:20;;;;;;;11.25;6.35;;;9.40;99.90;;;;;;5106074;27;20508;-85
2023/06/04 01:50:45;;;;;;;11.68;6.25;;;9.50;99.90;;;;;;5141537;27;20035;-85
2023/06/04 01:53:11;;;;;;;16.27;6.70;;;9.50;99.90;;;;;;5110334;27;20380;-85
2023/06/04 01:55:37;;;;;;;13.07;6.97;;;9.50;99.90;;;;;;5129506;27;20085;-85
2023/06/04 01:58:03;;;;;;;15.38;7.25;;;9.50;99.90;;;;;;5111445;27;20043;-85
2023/06/04 02:00:29;;;;;;;17.20;7.18;;;9.40;99.90;;;;;;5120498;27;20073;-85
2023/06/04 02:02:55;;;;;;;13.63;6.90;;;9.60;99.90;;;;;;5088149;27;20074;-85
2023/06/04 02:05:22;;;;;;;13.10;7.18;;;9.60;99.90;;;;;;5146853;27;20035;-85
2023/06/04 02:07:48;;;;;;;13.15;7.18;;;9.50;99.90;;;;;;5131969;27;20551;-86
2023/06/04 02:10:19;;;;;;;14.07;8.05;;;9.50;99.90;;;;;;5128720;27;20075;-85
2023/06/04 02:12:56;;;;;;;14.20;7.80;;;9.40;99.90;;;;;;5129732;27;20047;-85
2023/06/04 02:15:23;;;;;;;16.38;7.38;;;9.30;99.90;;;;;;5124983;27;20118;-86
2023/06/04 02:17:50;;;;;;;13.35;7.25;;;9.30;99.90;;;;;;5099393;27;20036;-86
2023/06/04 02:20:16;;;;;;;10.05;6.03;;;9.20;99.90;;;;;;5104706;27;20494;-85
2023/06/04 02:22:42;;;;;;;9.73;5.68;;;9.20;99.90;;;;;;5092321;27;20562;-86
2023/06/04 02:25:11;;;;;;;12.75;5.72;;;9.10;99.90;;;;;;5087728;27;20176;-86
2023/06/04 02:27:36;;;;;;;13.50;6.72;;;9.10;99.90;;;;;;5110279;27;20106;-85
2023/06/04 02:30:03;;;;;;;12.85;7.00;;;9.20;99.90;;;;;;5096176;27;20097;-85
2023/06/04 02:32:29;;;;;;;12.27;6.50;;;9.20;99.90;;;;;;5100834;27;20037;-85
2023/06/04 02:34:55;;;;;;;25.95;6.07;;;9.10;99.90;;;;;;5088971;27;20043;-85
2023/06/04 02:37:22;;;;;;;43.03;7.43;;;9.10;99.90;;;;;;5090873;27;20427;-86
2023/06/04 02:39:48;;;;;;;61.50;8.77;;;9.20;99.90;;;;;;5140436;27;20403;-85
2023/06/04 02:42:13;;;;;;;8.18;5.28;;;9.10;99.90;;;;;;5104937;27;20045;-85
2023/06/04 02:44:39;;;;;;;15.02;7.15;;;9.10;99.90;;;;;;5129778;27;20116;-85
2023/06/04 02:47:05;;;;;;;17.63;9.05;;;9.00;99.90;;;;;;5123108;27;20043;-85
2023/06/04 02:49:31;;;;;;;18.08;8.73;;;9.10;99.90;;;;;;5092796;27;20027;-85
2023/06/04 02:51:57;;;;;;;24.05;9.75;;;9.10;99.90;;;;;;5123067;27;20107;-85
2023/06/04 02:54:22;;;;;;;16.13;8.05;;;9.20;99.90;;;;;;5120329;27;20084;-86
2023/06/04 02:56:51;;;;;;;9.55;5.55;;;9.10;99.90;;;;;;5138507;27;20433;-85
2023/06/04 02:59:16;;;;;;;112.85;13.18;;;8.90;99.90;;;;;;5131348;27;20053;-85
2023/06/04 03:01:43;;;;;;;12.93;7.05;;;9.00;99.90;;;;;;5136819;27;20031;-85
2023/06/04 03:04:09;;;;;;;8.65;5.90;;;8.90;99.90;;;;;;5088036;27;20145;-86
2023/06/04 03:06:39;;;;;;;11.52;7.00;;;8.90;99.90;;;;;;5108921;27;20053;-85
2023/06/04 03:09:05;;;;;;;281.27;16.35;;;8.90;99.90;;;;;;5094003;27;20444;-86
2023/06/04 03:11:30;;;;;;;9.25;6.55;;;9.00;99.90;;;;;;5107435;27;20046;-86
2023/06/04 03:13:56;;;;;;;11.55;6.60;;;8.90;99.90;;;;;;5097892;27;20518;-86
2023/06/04 03:16:22;;;;;;;34.47;9.52;;;8.90;99.90;;;;;;5125067;27;20475;-86
2023/06/04 03:18:47;;;;;;;19.90;9.00;;;8.90;99.90;;;;;;5089141;27;20088;-86
2023/06/04 03:21:13;;;;;;;22.73;9.65;;;8.90;99.90;;;;;;5141334;27;20391;-86
2023/06/04 03:23:40;;;;;;;13.85;9.30;;;8.90;99.90;;;;;;5143569;27;20440;-86
2023/06/04 03:26:06;;;;;;;13.48;7.85;;;9.00;99.90;;;;;;5122781;27;20034;-86
2023/06/04 03:28:36;;;;;;;21.65;8.80;;;9.00;99.90;;;;;;5126046;27;20034;-85
2023/06/04 03:31:02;;;;;;;25.30;8.90;;;9.00;99.90;;;;;;5112380;27;20046;-86
2023/06/04 03:33:27;;;;;;;23.10;10.45;;;9.00;99.90;;;;;;5103123;27;20106;-86
2023/06/04 03:35:53;;;;;;;16.50;9.70;;;9.10;99.90;;;;;;5140302;27;20074;-86
2023/06/04 03:38:19;;;;;;;16.02;9.02;;;9.20;99.90;;;;;;5121152;27;20057;-85
2023/06/04 03:40:45;;;;;;;13.27;9.20;;;9.20;99.90;;;;;;5122295;27;20587;-86
2023/06/04 03:43:11;;;;;;;13.77;8.63;;;9.10;99.90;;;;;;5120188;27;20034;-86
2023/06/04 03:45:40;;;;;;;16.48;9.23;;;9.10;99.90;;;;;;5093626;27;20095;-86
2023/06/04 03:48:06;;;;;;;12.98;7.93;;;9.20;99.90;;;;;;5098609;27;20051;-86
2023/06/04 03:50:32;;;;;;;16.00;8.77;;;9.20;99.90;;;;;;5111599;27;20061;-86
2023/06/04 03:52:58;;;;;;;19.42;10.13;;;9.20;99.90;;;;;;5136154;27;20031;-85
2023/06/04 03:55:24;;;;;;;13.80;7.85;;;9.20;99.90;;;;;;5124486;27;20382;-87
2023/06/04 03:57:49;;;;;;;21.05;9.13;;;9.30;99.90;;;;;;5122115;27;20038;-86
2023/06/04 04:00:15;;;;;;;60.83;11.02;;;9.30;99.90;;;;;;5100574;27;20046;-86
2023/06/04 04:02:44;;;;;;;42.55;11.63;;;9.40;99.90;;;;;;5110046;27;20043;-87
2023/06/04 04:05:11;;;;;;;20.60;10.35;;;9.40;99.90;;;;;;5108323;27;20724;-87
2023/06/04 04:07:36;;;;;;;20.25;9.05;;;9.50;99.90;;;;;;5101703;27;20925;-87
2023/06/04 04:10:02;;;;;;;31.08;10.80;;;9.60;99.90;;;;;;5106480;27;20272;-87
2023/06/04 04:12:28;;;;;;;21.98;10.38;;;9.60;99.90;;;;;;5109421;27;20046;-87
2023/06/04 04:14:53;;;;;;;18.08;10.23;;;9.70;99.90;;;;;;5123128;27;20039;-87
2023/06/04 04:17:19;;;;;;;18.02;9.52;;;9.70;99.90;;;;;;5084562;27;20042;-86
2023/06/04 04:19:48;;;;;;;13.98;9.80;;;9.70;99.90;;;;;;5086844;27;20035;-87
2023/06/04 04:22:17;;;;;;;18.25;9.85;;;9.70;99.90;;;;;;5128203;27;20043;-88
2023/06/04 04:24:43;;;;;;;16.50;9.27;;;9.80;99.90;;;;;;5109187;27;20113;-87
2023/06/04 04:27:12;;;;;;;17.00;8.75;;;9.80;99.90;;;;;;5092889;27;20415;-87
2023/06/04 04:29:38;;;;;;;21.38;9.68;;;9.90;99.90;;;;;;5114702;27;20122;-87
2023/06/04 04:32:10;;;;;;;18.83;9.40;;;10.10;99.90;;;;;;5101788;27;20556;-87
2023/06/04 04:34:39;;;;;;;15.57;10.55;;;10.20;99.90;;;;;;5101909;27;20384;-87
2023/06/04 04:37:09;;;;;;;22.98;11.40;;;10.40;99.90;;;;;;5089551;27;20145;-86
2023/06/04 04:39:38;;;;;;;22.05;11.70;;;10.50;99.90;;;;;;5141676;27;20494;-87
2023/06/04 04:42:04;;;;;;;17.52;10.55;;;10.60;99.90;;;;;;5104806;27;20513;-87
2023/06/04 04:44:32;;;;;;;14.50;9.57;;;10.70;99.90;;;;;;5122600;27;20031;-87
2023/06/04 04:46:58;;;;;;;16.73;8.98;;;10.80;99.90;;;;;;5099067;28;20122;-87
2023/06/04 04:49:23;;;;;;;18.10;9.18;;;10.90;99.90;;;;;;5129912;27;20159;-87
2023/06/04 04:51:51;;;;;;;13.27;8.88;;;11.00;99.90;;;;;;5125694;27;20047;-87
2023/06/04 04:54:17;;;;;;;19.08;8.93;;;11.10;99.90;;;;;;5141180;27;20039;-87
2023/06/04 04:56:42;;;;;;;15.68;9.18;;;11.20;99.90;;;;;;5118157;27;20133;-87
2023/06/04 04:59:08;;;;;;;16.63;8.70;;;11.30;99.90;;;;;;5121455;27;20391;-86
2023/06/04 05:01:34;;;;;;;17.00;8.48;;;11.40;99.90;;;;;;5101202;28;20080;-87
2023/06/04 05:03:59;;;;;;;15.90;7.53;;;11.60;99.90;;;;;;5085507;27;20412;-87
2023/06/04 05:06:28;;;;;;;15.48;7.13;;;11.60;99.90;;;;;;5128037;27;20382;-87
2023/06/04 05:08:54;;;;;;;12.38;7.35;;;11.80;99.90;;;;;;5104780;27;20077;-87
2023/06/04 05:11:21;;;;;;;11.65;7.50;;;11.90;99.90;;;;;;5123972;27;20072;-87
2023/06/04 05:13:46;;;;;;;13.48;7.57;;;12.00;99.90;;;;;;5105984;27;20043;-87
2023/06/04 05:16:12;;;;;;;13.35;6.90;;;11.90;99.90;;;;;;5086135;28;20042;-87
2023/06/04 05:18:41;;;;;;;13.98;7.30;;;12.10;99.90;;;;;;5085876;27;20035;-87
2023/06/04 05:21:11;;;;;;;14.60;8.20;;;12.20;99.90;;;;;;5108905;27;20035;-87
2023/06/04 05:23:38;;;;;;;11.98;6.85;;;12.30;99.90;;;;;;5112192;27;20070;-87
2023/06/04 05:26:04;;;;;;;13.00;7.85;;;12.30;99.90;;;;;;5090173;27;20036;-87
2023/06/04 05:28:33;;;;;;;17.75;8.07;;;12.40;99.90;;;;;;5111909;27;20035;-86
2023/06/04 05:31:02;;;;;;;14.70;7.40;;;12.50;99.90;;;;;;5110140;27;20126;-87
2023/06/04 05:33:30;;;;;;;14.40;8.10;;;12.60;99.90;;;;;;5089099;27;20039;-89
2023/06/04 05:35:57;;;;;;;16.60;7.60;;;12.80;99.90;;;;;;5109970;27;20038;-86
2023/06/04 05:38:26;;;;;;;15.27;7.95;;;12.80;99.90;;;;;;5123569;27;20046;-87
2023/06/04 05:40:53;;;;;;;16.10;7.93;;;12.80;99.90;;;;;;5114744;27;20089;-87
2023/06/04 05:43:20;;;;;;;12.15;7.15;;;12.80;99.90;;;;;;5110384;27;20045;-87
2023/06/04 05:45:46;;;;;;;13.40;7.80;;;13.00;99.90;;;;;;5098600;27;20494;-87
2023/06/04 05:48:11;;;;;;;12.85;7.00;;;13.10;99.90;;;;;;5089996;27;20039;-87
2023/06/04 05:50:37;;;;;;;13.27;6.75;;;13.20;99.90;;;;;;5122676;27;20044;-86
2023/06/04 05:53:03;;;;;;;17.30;7.15;;;13.00;99.90;;;;;;5091168;27;20110;-87
2023/06/04 05:55:31;;;;;;;15.38;6.55;;;13.20;99.90;;;;;;5144133;27;20047;-86
2023/06/04 05:57:57;;;;;;;15.07;6.50;;;13.30;99.90;;;;;;5119854;27;20679;-86
2023/06/04 06:00:23;;;;;;;17.75;6.88;;;13.30;99.90;;;;;;5095014;27;20389;-86
2023/06/04 06:02:52;;;;;;;11.70;5.18;;;13.40;99.90;;;;;;5122607;27;20088;-86
2023/06/04 06:05:19;;;;;;;9.25;4.57;;;13.30;99.90;;;;;;5109229;27;20046;-87
2023/06/04 06:07:46;;;;;;;12.55;5.20;;;13.50;99.90;;;;;;5129375;27;20038;-85
2023/06/04 06:10:12;;;;;;;11.68;4.80;;;13.50;99.90;;;;;;5091386;27;20047;-85
2023/06/04 06:12:37;;;;;;;8.88;4.63;;;13.70;99.90;;;;;;5094185;27;20373;-86
2023/06/04 06:15:04;;;;;;;9.98;4.28;;;13.60;99.90;;;;;;5093932;27;20261;-86
2023/06/04 06:17:29;;;;;;;9.65;4.00;;;13.60;99.90;;;;;;5098892;27;20130;-85
2023/06/04 06:19:55;;;;;;;10.27;4.03;;;13.90;99.90;;;;;;5125689;27;20596;-85
2023/06/04 06:22:22;;;;;;;8.88;4.07;;;13.80;99.90;;;;;;5091260;27;20042;-86
2023/06/04 06:24:50;;;;;;;9.18;3.70;;;13.90;99.90;;;;;;5120428;27;20084;-86
2023/06/04 06:27:17;;;;;;;12.95;4.55;;;13.90;99.90;;;;;;5094150;27;20042;-85
2023/06/04 06:29:43;;;;;;;7.45;4.43;;;14.00;99.90;;;;;;5127095;27;20065;-85
2023/06/04 06:32:12;;;;;;;9.30;3.95;;;14.20;99.90;;;;;;5102573;27;20541;-86
2023/06/04 06:34:38;;;;;;;8.10;3.63;;;14.20;99.90;;;;;;5094258;27;20125;-85
2023/06/04 06:37:04;;;;;;;11.85;5.03;;;14.30;99.90;;;;;;5122657;27;20183;-86
2023/06/04 06:39:32;;;;;;;11.52;3.53;;;14.30;99.90;;;;;;5094809;27;20054;-85
2023/06/04 06:41:57;;;;;;;11.98;3.97;;;14.50;99.90;;;;;;5111468;27;20077;-85
2023/06/04 06:44:23;;;;;;;7.35;3.47;;;14.60;99.90;;;;;;5127154;27;20082;-85
2023/06/04 06:46:48;;;;;;;8.48;2.65;;;14.50;99.90;;;;;;5131811;27;20039;-86
2023/06/04 06:49:15;;;;;;;5.93;2.47;;;14.60;99.90;;;;;;5090811;27;20037;-85
2023/06/04 06:51:41;;;;;;;7.03;2.78;;;14.80;99.90;;;;;;5094842;27;20038;-85
2023/06/04 06:54:08;;;;;;;6.68;2.65;;;14.90;99.90;;;;;;5123290;27;20048;-85
2023/06/04 06:56:34;;;;;;;7.35;2.53;;;14.90;99.90;;;;;;5121985;27;20454;-84
2023/06/04 06:59:00;;;;;;;8.48;2.42;;;14.80;99.90;;;;;;5101576;28;20039;-84
2023/06/04 07:01:26;;;;;;;6.47;2.55;;;15.10;99.90;;;;;;5119450;27;20474;-84
2023/06/04 07:03:52;;;;;;;9.55;2.45;;;15.00;99.90;;;;;;5089038;27;20504;-84
2023/06/04 07:06:17;;;;;;;7.93;2.55;;;14.90;99.90;;;;;;5094856;27;20050;-84
2023/06/04 07:08:43;;;;;;;8.00;2.67;;;15.00;99.90;;;;;;5145453;27;20081;-84
2023/06/04 07:11:11;;;;;;;8.23;2.58;;;15.20;99.90;;;;;;5111818;27;20039;-85
2023/06/04 07:13:38;;;;;;;5.63;2.50;;;15.40;99.90;;;;;;5106913;27;20046;-85
2023/06/04 07:16:04;;;;;;;7.47;2.25;;;15.40;99.90;;;;;;5108126;27;20042;-85
2023/06/04 07:18:30;;;;;;;4.28;2.15;;;15.40;99.90;;;;;;5085760;27;20035;-85
2023/06/04 07:20:55;;;;;;;5.47;2.20;;;15.40;99.90;;;;;;5124174;27;20136;-84
2023/06/04 07:23:21;;;;;;;4.60;2.00;;;15.70;99.90;;;;;;5105663;27;20034;-85
2023/06/04 07:25:47;;;;;;;4.60;2.10;;;15.70;99.90;;;;;;5091604;27;20045;-85
2023/06/04 07:28:13;;;;;;;4.45;2.30;;;15.60;99.90;;;;;;5095714;27;20058;-84
2023/06/04 07:30:39;;;;;;;7.57;2.20;;;15.40;99.90;;;;;;5104245;27;20470;-84
2023/06/04 07:33:04;;;;;;;5.05;2.08;;;15.50;99.90;;;;;;5103456;27;20035;-85
2023/06/04 07:35:30;;;;;;;7.10;2.20;;;15.50;99.90;;;;;;5093543;27;20125;-84
2023/06/04 07:37:55;;;;;;;6.30;2.00;;;15.40;99.90;;;;;;5104111;27;20339;-85
2023/06/04 07:40:21;;;;;;;3.28;1.90;;;15.70;99.90;;;;;;5089214;27;20043;-85
2023/06/04 07:42:50;;;;;;;6.35;2.38;;;16.00;99.90;;;;;;5121379;27;20110;-85
2023/06/04 07:45:16;;;;;;;5.55;2.10;;;16.00;99.90;;;;;;5118156;27;20046;-85
2023/06/04 07:47:42;;;;;;;5.47;1.70;;;16.10;99.90;;;;;;5103089;27;20035;-84
2023/06/04 07:50:08;;;;;;;4.15;1.90;;;16.30;99.90;;;;;;5126842;27;20035;-84
2023/06/04 07:52:34;;;;;;;4.75;1.80;;;16.20;99.90;;;;;;5103291;27;20054;-85
2023/06/04 07:55:00;;;;;;;5.55;2.20;;;16.50;99.90;;;;;;5095885;27;20505;-85
2023/06/04 07:57:26;;;;;;;6.47;2.00;;;16.00;99.90;;;;;;5104381;27;20523;-85
2023/06/04 07:59:52;;;;;;;6.53;2.10;;;16.30;99.90;;;;;;5105213;27;20059;-85
2023/06/04 08:02:18;;;;;;;3.45;2.08;;;16.50;99.90;;;;;;5131374;27;20115;-84
2023/06/04 08:04:45;;;;;;;3.50;1.63;;;16.30;99.90;;;;;;5122557;27;20043;-85
2023/06/04 08:07:11;;;;;;;4.85;2.10;;;16.50;30.10;;;;;;5094409;27;20133;-85
2023/06/04 08:09:40;;;;;;;5.88;2.42;;;16.50;1.00;;;;;;5123113;27;20099;-84
2023/06/04 08:12:06;;;;;;;5.45;1.90;;;16.60;99.90;;;;;;5108427;27;20066;-85
2023/06/04 08:14:32;;;;;;;3.00;1.60;;;16.80;72.10;;;;;;5094429;27;20374;-85
2023/06/04 08:16:58;;;;;;;3.70;1.80;;;16.60;99.90;;;;;;5120455;27;20050;-85
2023/06/04 08:19:23;;;;;;;8.73;2.00;;;16.40;99.90;;;;;;5124263;27;20034;-85
2023/06/04 08:21:50;;;;;;;3.00;1.90;;;16.50;99.90;;;;;;5142750;27;20038;-85
2023/06/04 08:24:16;;;;;;;3.20;1.90;;;16.40;99.90;;;;;;5086489;27;20513;-85
2023/06/04 08:26:44;;;;;;;3.10;1.75;;;16.80;1.00;;;;;;5104860;27;20035;-85
2023/06/04 08:29:10;;;;;;;4.22;1.95;;;16.70;1.00;;;;;;5124327;27;20134;-85
2023/06/04 08:31:35;;;;;;;3.45;1.80;;;16.40;99.90;;;;;;5082984;27;20039;-85
2023/06/04 08:34:05;;;;;;;3.85;1.77;;;16.80;1.00;;;;;;5102968;27;20095;-85
2023/06/04 08:36:36;;;;;;;5.45;1.58;;;17.10;99.90;;;;;;5133356;27;20511;-85
2023/06/04 08:39:02;;;;;;;3.60;1.50;;;17.20;1.00;;;;;;5122561;27;20123;-85
2023/06/04 08:41:31;;;;;;;5.70;1.67;;;17.30;99.90;;;;;;5109001;27;20044;-85
2023/06/04 08:43:58;;;;;;;4.38;1.95;;;17.30;1.00;;;;;;5108127;27;20026;-84
2023/06/04 08:46:25;;;;;;;6.90;2.40;;;16.90;75.60;;;;;;5103632;27;20067;-84
2023/06/04 08:48:52;;;;;;;6.03;1.58;;;17.30;1.00;;;;;;5119093;27;20502;-84
2023/06/04 08:51:18;;;;;;;4.22;1.65;;;17.60;99.90;;;;;;5141001;27;20098;-84
2023/06/04 08:53:47;;;;;;;3.28;1.70;;;17.70;1.00;;;;;;5116873;27;20035;-84
2023/06/04 08:56:13;;;;;;;5.47;1.67;;;18.00;99.90;;;;;;5142550;27;20050;-85
2023/06/04 08:58:44;;;;;;;3.75;1.40;;;18.00;99.90;;;;;;5113944;27;20038;-85
2023/06/04 09:01:10;;;;;;;5.10;2.13;;;17.70;1.00;;;;;;5096275;27;20138;-85
2023/06/04 09:03:37;;;;;;;4.25;1.80;;;17.60;99.90;;;;;;5113268;27;20618;-85
2023/06/04 09:06:04;;;;;;;3.65;1.70;;;18.00;1.00;;;;;;5105957;27;20120;-84
2023/06/04 09:08:32;;;;;;;5.68;1.80;;;17.90;1.00;;;;;;5128110;27;20036;-85
2023/06/04 09:10:58;;;;;;;4.88;1.42;;;17.70;99.90;;;;;;5090425;27;20466;-85
2023/06/04 09:13:30;;;;;;;4.30;1.80;;;17.60;1.00;;;;;;5103439;27;20035;-84
2023/06/04 09:16:03;;;;;;;5.32;1.92;;;18.30;99.90;;;;;;5125222;27;20034;-84
2023/06/04 09:18:30;;;;;;;4.28;1.90;;;18.50;99.90;;;;;;5124174;27;20027;-85
2023/06/04 09:21:08;;;;;;;3.30;1.83;;;18.20;42.60;;;;;;5110733;27;20086;-85
2023/06/04 09:23:45;;;;;;;3.95;1.80;;;17.80;1.00;;;;;;5110671;27;20493;-84
2023/06/04 09:26:10;;;;;;;4.43;1.85;;;17.70;1.00;;;;;;5119438;27;20035;-84
2023/06/04 09:28:44;;;;;;;3.28;1.55;;;18.10;99.90;;;;;;5127671;27;20047;-85
2023/06/04 09:31:16;;;;;;;3.83;1.63;;;17.90;99.90;;;;;;5132208;27;20517;-85
2023/06/04 09:33:47;;;;;;;3.78;1.75;;;18.30;99.90;;;;;;5110350;27;20114;-84
2023/06/04 09:36:13;;;;;;;5.82;1.90;;;18.20;99.90;;;;;;5109170;27;20027;-85
2023/06/04 09:38:39;;;;;;;3.65;1.60;;;18.70;99.90;;;;;;5120699;27;20337;-86
2023/06/04 09:41:11;;;;;;;4.32;1.83;;;18.90;1.00;;;;;;5120997;27;20289;-84
2023/06/04 09:43:37;;;;;;;2.45;1.40;;;18.70;99.90;;;;;;5100107;27;20039;-85
2023/06/04 09:46:13;;;;;;;3.28;1.60;;;19.30;99.90;;;;;;5132519;27;20039;-85
2023/06/04 09:48:40;;;;;;;4.47;1.48;;;19.40;99.90;;;;;;5090995;27;20351;-85
2023/06/04 09:51:15;;;;;;;4.05;1.67;;;19.60;99.90;;;;;;5109663;27;20050;-85
2023/06/04 09:53:41;;;;;;;2.97;1.70;;;19.50;1.00;;;;;;5124988;27;20039;-85
2023/06/04 09:56:11;;;;;;;3.53;1.77;;;19.70;1.00;;;;;;5106972;27;20563;-84
2023/06/04 09:58:38;;;;;;;4.32;1.98;;;19.60;1.00;;;;;;5142043;27;20304;-85
2023/06/04 10:01:06;;;;;;;4.07;1.83;;;18.70;1.00;;;;;;5130282;27;20034;-85
2023/06/04 10:03:35;;;;;;;4.25;1.75;;;18.80;1.00;;;;;;5114693;27;20039;-85
2023/06/04 10:06:04;;;;;;;2.92;1.60;;;18.90;1.00;;;;;;5109429;27;20494;-84
2023/06/04 10:08:31;;;;;;;4.40;1.70;;;19.00;99.90;;;;;;5114066;27;20035;-86
2023/06/04 10:11:02;;;;;;;4.13;1.80;;;19.20;99.90;;;;;;5098567;27;20041;-85
2023/06/04 10:13:31;;;;;;;3.92;1.80;;;19.50;99.90;;;;;;5110525;27;20549;-84
2023/06/04 10:15:58;;;;;;;3.47;1.40;;;19.70;99.90;;;;;;5123008;27;20045;-84
2023/06/04 10:18:26;;;;;;;5.28;1.80;;;19.70;99.90;;;;;;5101205;27;20504;-85
2023/06/04 10:20:55;;;;;;;2.85;1.65;;;19.30;99.90;;;;;;5099307;27;20399;-85
2023/06/04 10:23:22;;;;;;;8.45;1.85;;;19.50;99.90;;;;;;5124974;27;20077;-84
2023/06/04 10:25:52;;;;;;;3.35;1.90;;;19.30;99.90;;;;;;5122477;27;20397;-84
2023/06/04 10:28:19;;;;;;;3.65;1.60;;;19.60;99.90;;;;;;5115232;27;20034;-84
2023/06/04 10:30:46;;;;;;;2.83;1.50;;;19.60;99.90;;;;;;5096178;27;20122;-85
2023/06/04 10:33:12;;;;;;;2.30;1.50;;;20.30;99.90;;;;;;5109463;27;20492;-85
2023/06/04 10:35:38;;;;;;;3.53;1.67;;;20.10;99.90;;;;;;5127006;27;20392;-85
2023/06/04 10:38:13;;;;;;;5.07;1.58;;;19.60;99.90;;;;;;5142623;27;20043;-83
2023/06/04 10:40:39;;;;;;;;;;;19.30;99.90;;;;;;5083132;27;20081;-84
2023/06/04 10:43:10;;;;;;;5.35;1.80;;;20.00;99.90;;;;;;5123003;27;19923;-84
2023/06/04 10:45:36;;;;;;;2.50;1.42;;;19.90;99.90;;;;;;5093160;27;20035;-84
2023/06/04 10:48:07;;;;;;;5.45;2.00;;;20.20;99.90;;;;;;5092926;27;20089;-85
2023/06/04 10:50:33;;;;;;;3.83;1.58;;;20.60;97.70;;;;;;5093374;27;20043;-84
2023/06/04 10:53:02;;;;;;;3.83;1.77;;;20.20;1.00;;;;;;5135707;27;20046;-85
2023/06/04 10:55:29;;;;;;;3.90;1.98;;;20.50;50.50;;;;;;5107475;27;20149;-84
2023/06/04 10:58:00;;;;;;;5.05;1.70;;;21.10;82.60;;;;;;5098062;27;20475;-85
2023/06/04 11:00:41;;;;;;;3.58;1.70;;;21.10;34.70;;;;;;5106490;27;20413;-84
2023/06/04 11:03:09;;;;;;;4.60;1.60;;;21.10;11.90;;;;;;5113109;27;20478;-84
2023/06/04 11:05:44;;;;;;;3.22;1.83;;;20.10;1.00;;;;;;5098503;27;20241;-84
2023/06/04 11:08:13;;;;;;;6.03;1.85;;;19.90;1.00;;;;;;5090114;27;20372;-84
2023/06/04 11:10:42;;;;;;;4.30;1.85;;;20.00;99.90;;;;;;5105869;27;20046;-85
2023/06/04 11:13:07;;;;;;;3.20;1.80;;;20.90;74.00;;;;;;5097220;27;20221;-83
2023/06/04 11:15:41;;;;;;;2.80;1.70;;;20.70;1.00;;;;;;5085185;28;20487;-84
2023/06/04 11:18:20;;;;;;;3.80;1.50;;;20.50;1.00;;;;;;5092334;27;20082;-84
2023/06/04 11:20:59;;;;;;;4.82;1.65;;;21.50;1.00;;;;;;5085652;27;20518;-85
2023/06/04 11:23:24;;;;;;;3.92;1.63;;;21.70;1.00;;;;;;5102794;27;20549;-85
2023/06/04 11:25:52;;;;;;;2.97;1.63;;;21.90;1.00;;;;;;5120468;27;20123;-85
2023/06/04 11:28:19;;;;;;;3.75;1.80;;;22.10;1.00;;;;;;5101367;27;20027;-85
2023/06/04 11:30:59;;;;;;;2.88;1.70;;;20.50;99.90;;;;;;5082091;27;20487;-84
2023/06/04 11:33:24;;;;;;;3.58;1.80;;;20.30;99.90;;;;;;5101036;27;20410;-84
2023/06/04 11:35:50;;;;;;;3.83;1.58;;;21.40;1.00;;;;;;5106351;27;20050;-84
2023/06/04 11:38:16;;;;;;;2.58;1.65;;;21.60;99.90;;;;;;5078065;28;20457;-84
2023/06/04 11:40:43;;;;;;;3.47;1.48;;;22.00;99.90;;;;;;5067493;28;20523;-84
2023/06/04 11:43:12;;;;;;;4.75;1.90;;;22.50;99.90;;;;;;5074263;28;20164;-84
2023/06/04 11:45:44;;;;;;;3.60;1.38;;;22.00;99.90;;;;;;5067829;28;20124;-84
2023/06/04 11:48:11;;;;;;;2.70;1.70;;;22.00;99.90;;;;;;5079405;28;20421;-84
2023/06/04 11:50:37;;;;;;;5.75;1.77;;;21.20;99.90;;;;;;5082236;28;20111;-84
2023/06/04 11:53:03;;;;;;;5.63;1.95;;;21.60;99.90;;;;;;5076236;28;20231;-85
2023/06/04 11:55:29;;;;;;;2.40;1.65;;;21.00;99.90;;;;;;5063992;28;20032;-84
2023/06/04 11:57:58;;;;;;;4.75;2.13;;;20.80;99.90;;;;;;5067258;28;20486;-84
2023/06/04 12:00:24;;;;;;;4.57;2.22;;;20.70;99.90;;;;;;5065856;28;20095;-84
2023/06/04 12:02:52;;;;;;;5.80;1.98;;;21.70;99.90;;;;;;5077002;28;20047;-84
2023/06/04 12:05:19;;;;;;;2.65;1.50;;;22.50;99.90;;;;;;5083954;28;20036;-84
2023/06/04 12:07:45;;;;;;;4.30;1.77;;;22.50;99.90;;;;;;5070877;28;20028;-84
2023/06/04 12:10:11;;;;;;;3.45;1.50;;;21.60;99.90;;;;;;5075655;28;20036;-85
2023/06/04 12:12:38;;;;;;;3.95;1.67;;;21.60;99.90;;;;;;5075351;28;20027;-84
2023/06/04 12:15:05;;;;;;;2.50;1.40;;;21.80;99.90;;;;;;5077860;28;20044;-84
2023/06/04 12:17:32;;;;;;;4.20;1.70;;;22.60;99.90;;;;;;5062242;28;20039;-85
2023/06/04 12:19:58;;;;;;;3.55;1.60;;;22.50;99.90;;;;;;5084403;28;20075;-84
2023/06/04 12:22:26;;;;;;;3.83;1.60;;;22.00;99.90;;;;;;5065523;28;20472;-84
2023/06/04 12:24:53;;;;;;;2.90;1.50;;;22.80;99.90;;;;;;5072404;28;20044;-85
2023/06/04 12:27:23;;;;;;;2.38;1.33;;;21.50;99.90;;;;;;5076398;28;20086;-84
2023/06/04 12:29:59;;;;;;;3.03;1.63;;;22.30;99.90;;;;;;5060051;28;20048;-84
2023/06/04 12:32:25;;;;;;;5.90;1.98;;;21.70;99.90;;;;;;5064039;28;20040;-85
2023/06/04 12:34:50;;;;;;;3.72;1.90;;;21.80;99.90;;;;;;5065201;28;20119;-86
2023/06/04 12:37:16;;;;;;;3.65;1.63;;;22.70;99.90;;;;;;5060922;28;20040;-85
2023/06/04 12:39:42;;;;;;;5.53;1.95;;;22.10;99.90;;;;;;5080259;28;20502;-84
2023/06/04 12:42:09;;;;;;;2.60;1.63;;;21.70;99.90;;;;;;5067847;28;20452;-84
2023/06/04 12:44:36;;;;;;;3.80;1.75;;;22.90;99.90;;;;;;5080320;28;20118;-84
2023/06/04 12:47:03;;;;;;;3.83;1.70;;;23.10;99.90;;;;;;5076660;28;20229;-84
2023/06/04 12:49:28;;;;;;;4.07;1.65;;;23.60;99.90;;;;;;5069525;28;20463;-85